createdAt,value
2023-11-10T00:00:36.765Z,10.62
2023-11-10T00:03:26.203Z,10.69
2023-11-10T00:05:53.920Z,10.57
2023-11-10T00:08:21.862Z,10.47
2023-11-10T00:10:49.225Z,10.44
2023-11-10T00:13:17.157Z,10.42
2023-11-10T00:15:44.759Z,10.29
2023-11-10T00:18:12.604Z,10.16
2023-11-10T00:20:41.818Z,10.24
2023-11-10T00:23:09.597Z,10.27
2023-11-10T00:25:36.961Z,10.43
2023-11-10T00:28:05.247Z,10.54
2023-11-10T00:30:32.618Z,10.68
2023-11-10T00:33:00.413Z,10.63
2023-11-10T00:35:29.077Z,10.77
2023-11-10T00:37:58.264Z,10.88
2023-11-10T00:40:25.587Z,10.97
2023-11-10T00:42:53.503Z,11.12
2023-11-10T00:45:21.084Z,11.00
2023-11-10T00:47:48.977Z,11.00
2023-11-10T00:50:16.551Z,10.89
2023-11-10T00:52:44.272Z,10.72
2023-11-10T00:55:13.114Z,10.43
2023-11-10T00:57:40.923Z,10.44
2023-11-10T01:00:09.570Z,10.51
2023-11-10T01:02:37.647Z,10.42
2023-11-10T01:05:05.963Z,10.30
2023-11-10T01:07:33.774Z,10.33
2023-11-10T01:10:01.153Z,10.35
2023-11-10T01:12:30.505Z,10.47
2023-11-10T01:14:57.881Z,10.36
2023-11-10T01:17:25.644Z,10.23
2023-11-10T01:19:53.048Z,10.35
2023-11-10T01:22:20.760Z,10.63
2023-11-10T01:24:48.071Z,10.77
2023-11-10T01:27:15.801Z,10.71
2023-11-10T01:29:44.446Z,10.73
2023-11-10T01:32:12.172Z,10.50
2023-11-10T01:34:39.616Z,10.52
2023-11-10T01:37:07.738Z,10.48
2023-11-10T01:39:35.241Z,10.42
2023-11-10T01:42:02.972Z,10.49
2023-11-10T01:44:30.360Z,10.48
2023-11-10T01:47:00.411Z,10.58
2023-11-10T01:49:27.777Z,10.52
2023-11-10T01:51:56.669Z,10.49
2023-11-10T01:54:27.980Z,10.51
2023-11-10T01:56:56.422Z,10.30
2023-11-10T01:59:24.004Z,10.20
2023-11-10T02:01:51.833Z,10.16
2023-11-10T02:04:20.837Z,10.15
2023-11-10T02:06:49.589Z,10.21
2023-11-10T02:09:17.415Z,10.18
2023-11-10T02:11:45.362Z,10.12
2023-11-10T02:14:14.336Z,10.24
2023-11-10T02:16:42.525Z,10.16
2023-11-10T02:19:13.910Z,10.18
2023-11-10T02:21:43.324Z,10.22
2023-11-10T02:24:12.398Z,10.12
2023-11-10T02:26:47.446Z,10.19
2023-11-10T02:29:14.782Z,10.12
2023-11-10T02:31:42.654Z,10.01
2023-11-10T02:34:10.034Z,10.08
2023-11-10T02:36:37.718Z,10.05
2023-11-10T02:39:06.034Z,9.83
2023-11-10T02:41:34.600Z,9.76
2023-11-10T02:44:03.526Z,9.59
2023-11-10T02:46:31.163Z,9.62
2023-11-10T02:48:58.490Z,9.70
2023-11-10T02:51:26.308Z,9.78
2023-11-10T02:53:53.682Z,9.76
2023-11-10T02:56:21.864Z,9.75
2023-11-10T02:58:49.223Z,9.76
2023-11-10T03:01:22.908Z,9.78
2023-11-10T03:03:50.424Z,9.92
2023-11-10T03:06:18.344Z,9.86
2023-11-10T03:08:45.829Z,9.76
2023-11-10T03:11:13.710Z,9.70
2023-11-10T03:13:41.762Z,9.72
2023-11-10T03:16:09.494Z,9.79
2023-11-10T03:18:38.321Z,9.70
2023-11-10T03:21:06.552Z,9.63
2023-11-10T03:23:34.002Z,9.54
2023-11-10T03:26:02.756Z,9.65
2023-11-10T03:28:30.145Z,9.59
2023-11-10T03:30:57.824Z,9.60
2023-11-10T03:33:25.200Z,9.65
2023-11-10T03:35:54.400Z,9.60
2023-11-10T03:38:21.684Z,9.65
2023-11-10T03:40:49.414Z,9.73
2023-11-10T03:43:16.821Z,9.75
2023-11-10T03:45:44.843Z,9.76
2023-11-10T03:48:12.346Z,9.86
2023-11-10T03:50:41.175Z,9.81
2023-11-10T03:53:09.912Z,9.92
2023-11-10T03:55:37.615Z,9.93
2023-11-10T03:58:04.944Z,9.88
2023-11-10T04:00:42.015Z,9.99
2023-11-10T04:03:16.262Z,10.06
2023-11-10T04:05:44.383Z,10.05
2023-11-10T04:08:13.165Z,10.04
2023-11-10T04:10:40.806Z,9.93
2023-11-10T04:13:08.159Z,9.94
2023-11-10T04:15:35.980Z,9.93
2023-11-10T04:18:03.549Z,9.79
2023-11-10T04:20:31.335Z,9.86
2023-11-10T04:22:58.681Z,9.82
2023-11-10T04:25:32.511Z,9.72
2023-11-10T04:27:59.720Z,9.76
2023-11-10T04:30:27.572Z,9.70
2023-11-10T04:32:55.049Z,9.71
2023-11-10T04:35:22.755Z,9.76
2023-11-10T04:37:50.450Z,9.88
2023-11-10T04:40:18.302Z,9.99
2023-11-10T04:42:47.040Z,10.05
2023-11-10T04:45:15.117Z,10.14
2023-11-10T04:47:42.532Z,10.21
2023-11-10T04:50:11.050Z,10.11
2023-11-10T04:52:38.658Z,10.07
2023-11-10T04:55:06.906Z,10.08
2023-11-10T04:57:34.301Z,10.09
2023-11-10T05:00:03.791Z,10.07
2023-11-10T05:02:31.297Z,9.96
2023-11-10T05:05:00.581Z,10.00
2023-11-10T05:07:28.162Z,10.19
2023-11-10T05:09:56.092Z,10.20
2023-11-10T05:12:23.385Z,10.17
2023-11-10T05:14:55.770Z,10.20
2023-11-10T05:17:24.564Z,10.34
2023-11-10T05:19:52.304Z,10.45
2023-11-10T05:22:19.747Z,10.37
2023-11-10T05:24:47.393Z,10.29
2023-11-10T05:27:14.848Z,10.44
2023-11-10T05:29:42.743Z,10.23
2023-11-10T05:32:10.186Z,10.13
2023-11-10T05:34:39.420Z,10.18
2023-11-10T05:37:06.781Z,10.08
2023-11-10T05:39:34.645Z,9.97
2023-11-10T05:42:02.025Z,9.66
2023-11-10T05:44:29.823Z,9.43
2023-11-10T05:46:57.349Z,9.34
2023-11-10T05:49:25.118Z,9.27
2023-11-10T05:51:53.915Z,9.29
2023-11-10T05:54:21.684Z,9.28
2023-11-10T05:56:49.063Z,9.37
2023-11-10T05:59:16.863Z,9.76
2023-11-10T06:01:44.346Z,10.01
2023-11-10T06:04:21.447Z,10.14
2023-11-10T06:06:54.765Z,10.02
2023-11-10T06:09:22.759Z,9.75
2023-11-10T06:11:55.431Z,9.60
2023-11-10T06:14:24.112Z,9.49
2023-11-10T06:16:51.499Z,9.45
2023-11-10T06:19:19.320Z,9.50
2023-11-10T06:21:46.880Z,9.49
2023-11-10T06:24:19.969Z,9.40
2023-11-10T06:26:47.449Z,9.35
2023-11-10T06:29:15.159Z,9.43
2023-11-10T06:31:42.757Z,9.35
2023-11-10T06:34:10.640Z,9.41
2023-11-10T06:36:38.080Z,9.33
2023-11-10T06:39:06.097Z,9.30
2023-11-10T06:41:34.890Z,9.42
2023-11-10T06:44:02.632Z,9.63
2023-11-10T06:46:30.318Z,9.88
2023-11-10T06:48:58.261Z,10.04
2023-11-10T06:51:25.728Z,10.09
2023-11-10T06:53:53.475Z,10.06
2023-11-10T06:56:20.885Z,10.20
2023-11-10T06:58:53.770Z,9.99
2023-11-10T07:01:21.349Z,9.99
2023-11-10T07:03:49.298Z,9.84
2023-11-10T07:06:16.805Z,9.58
2023-11-10T07:08:44.727Z,9.46
2023-11-10T07:11:14.494Z,9.43
2023-11-10T07:13:42.333Z,9.16
2023-11-10T07:16:11.136Z,9.20
2023-11-10T07:18:39.002Z,9.21
2023-11-10T07:21:06.588Z,9.29
2023-11-10T07:23:34.439Z,9.37
2023-11-10T07:26:01.981Z,9.33
2023-11-10T07:28:29.679Z,9.49
2023-11-10T07:30:57.111Z,9.42
2023-11-10T07:33:26.304Z,9.52
2023-11-10T07:35:53.712Z,9.61
2023-11-10T07:38:21.601Z,9.85
2023-11-10T07:40:48.969Z,10.14
2023-11-10T07:43:16.724Z,10.15
2023-11-10T07:45:46.280Z,10.18
2023-11-10T07:48:14.151Z,10.05
2023-11-10T07:50:43.014Z,9.86
2023-11-10T07:53:10.758Z,9.87
2023-11-10T07:55:38.016Z,9.92
2023-11-10T07:58:05.952Z,10.00
2023-11-10T08:00:33.357Z,10.22
2023-11-10T08:03:01.239Z,10.39
2023-11-10T08:05:28.794Z,10.51
2023-11-10T08:07:58.099Z,10.63
2023-11-10T08:10:25.475Z,10.91
2023-11-10T08:12:53.297Z,10.91
2023-11-10T08:15:20.664Z,11.09
2023-11-10T08:17:48.543Z,11.21
2023-11-10T08:20:16.065Z,11.23
2023-11-10T08:22:43.933Z,11.19
2023-11-10T08:25:12.752Z,11.42
2023-11-10T08:27:40.585Z,11.63
2023-11-10T08:30:09.273Z,11.63
2023-11-10T08:32:37.061Z,11.83
2023-11-10T08:35:05.081Z,12.14
2023-11-10T08:37:33.034Z,12.36
2023-11-10T08:40:00.441Z,12.08
2023-11-10T08:42:29.682Z,11.92
2023-11-10T08:44:57.213Z,11.82
2023-11-10T08:47:25.194Z,12.03
2023-11-10T08:49:52.585Z,11.97
2023-11-10T08:52:20.462Z,11.84
2023-11-10T08:54:47.798Z,11.75
2023-11-10T08:57:15.613Z,11.95
2023-11-10T08:59:44.479Z,12.02
2023-11-10T09:02:12.692Z,11.94
2023-11-10T09:04:40.327Z,11.86
2023-11-10T09:07:08.423Z,11.99
2023-11-10T09:09:35.940Z,12.07
2023-11-10T09:12:04.160Z,12.10
2023-11-10T09:14:31.526Z,12.19
2023-11-10T09:17:00.725Z,12.16
2023-11-10T09:19:28.087Z,12.10
2023-11-10T09:21:56.018Z,12.16
2023-11-10T09:24:23.374Z,12.25
2023-11-10T09:26:51.093Z,12.37
2023-11-10T09:29:18.713Z,12.53
2023-11-10T09:31:46.586Z,12.58
2023-11-10T09:34:15.320Z,12.49
2023-11-10T09:36:43.201Z,12.61
2023-11-10T09:39:15.267Z,12.66
2023-11-10T09:41:48.735Z,12.45
2023-11-10T09:44:16.124Z,12.55
2023-11-10T09:46:44.686Z,12.37
2023-11-10T09:49:12.336Z,12.19
2023-11-10T09:51:42.443Z,12.02
2023-11-10T09:54:10.345Z,11.83
2023-11-10T09:56:38.876Z,11.78
2023-11-10T09:59:07.120Z,12.02
2023-11-10T10:01:35.057Z,12.06
2023-11-10T10:04:02.598Z,11.94
2023-11-10T10:06:33.496Z,12.00
2023-11-10T10:09:05.063Z,12.16
2023-11-10T10:11:33.641Z,12.44
2023-11-10T10:14:01.432Z,12.38
2023-11-10T10:16:29.348Z,12.59
2023-11-10T10:18:56.812Z,12.57
2023-11-10T10:21:24.576Z,12.36
2023-11-10T10:23:51.998Z,12.09
2023-11-10T10:26:21.249Z,12.00
2023-11-10T10:28:48.805Z,11.73
2023-11-10T10:31:16.564Z,11.60
2023-11-10T10:33:44.125Z,11.69
2023-11-10T10:36:11.947Z,11.75
2023-11-10T10:38:48.309Z,11.69
2023-11-10T10:41:20.309Z,11.65
2023-11-10T10:43:58.402Z,11.74
2023-11-10T10:46:38.341Z,11.79
2023-11-10T10:49:07.946Z,11.68
2023-11-10T10:51:37.039Z,11.53
2023-11-10T10:54:05.616Z,11.59
2023-11-10T10:56:44.210Z,11.73
2023-11-10T10:59:14.518Z,11.58
2023-11-10T11:01:45.194Z,11.53
2023-11-10T11:04:29.393Z,11.59
2023-11-10T11:07:16.042Z,11.73
2023-11-10T11:10:00.260Z,11.83
2023-11-10T11:13:12.203Z,11.90
2023-11-10T11:15:48.478Z,11.79
2023-11-10T11:18:32.260Z,11.77
2023-11-10T11:21:00.181Z,11.89
2023-11-10T11:23:28.006Z,11.89
2023-11-10T11:25:59.161Z,11.88
2023-11-10T11:28:27.684Z,11.81
2023-11-10T11:31:07.801Z,11.89
2023-11-10T11:33:35.876Z,11.73
2023-11-10T11:36:03.396Z,11.54
2023-11-10T11:38:35.063Z,11.42
2023-11-10T11:41:05.063Z,11.32
2023-11-10T11:43:33.572Z,11.25
2023-11-10T11:46:03.255Z,11.24
2023-11-10T11:48:33.751Z,11.50
2023-11-10T11:51:03.967Z,11.80
2023-11-10T11:53:31.819Z,12.00
2023-11-10T11:56:01.637Z,12.12
2023-11-10T11:58:30.977Z,11.91
2023-11-10T12:00:58.609Z,11.94
2023-11-10T12:03:26.662Z,11.77
2023-11-10T12:05:57.410Z,11.94
2023-11-10T12:08:26.465Z,12.14
2023-11-10T12:10:53.939Z,12.23
2023-11-10T12:13:21.900Z,12.33
2023-11-10T12:15:49.513Z,12.22
2023-11-10T12:18:17.838Z,12.40
2023-11-10T12:20:45.274Z,12.37
2023-11-10T12:23:18.792Z,11.95
2023-11-10T12:25:46.579Z,11.87
2023-11-10T12:28:14.635Z,11.97
2023-11-10T12:30:42.561Z,12.06
2023-11-10T12:33:10.517Z,12.18
2023-11-10T12:35:39.246Z,12.28
2023-11-10T12:38:07.356Z,12.05
2023-11-10T12:40:36.660Z,12.02
2023-11-10T12:43:05.855Z,11.94
2023-11-10T12:45:33.335Z,11.92
2023-11-10T12:48:05.928Z,11.95
2023-11-10T12:50:35.033Z,12.08
2023-11-10T12:53:03.508Z,12.32
2023-11-10T12:55:31.041Z,12.44
2023-11-10T12:58:00.344Z,12.51
2023-11-10T13:00:27.894Z,12.64
2023-11-10T13:02:55.977Z,12.50
2023-11-10T13:05:23.301Z,12.41
2023-11-10T13:07:51.036Z,12.33
2023-11-10T13:10:18.647Z,12.25
2023-11-10T13:12:46.424Z,12.24
2023-11-10T13:15:15.359Z,11.96
2023-11-10T13:17:43.283Z,11.80
2023-11-10T13:20:10.776Z,11.77
2023-11-10T13:22:38.692Z,11.68
2023-11-10T13:25:06.911Z,11.56
2023-11-10T13:27:34.882Z,11.62
2023-11-10T13:30:02.507Z,11.69
2023-11-10T13:32:31.850Z,11.75
2023-11-10T13:34:59.345Z,11.70
2023-11-10T13:37:27.274Z,11.64
2023-11-10T13:39:54.755Z,11.55
2023-11-10T13:42:22.534Z,11.31
2023-11-10T13:44:50.004Z,11.26
2023-11-10T13:47:17.917Z,11.25
2023-11-10T13:49:46.633Z,11.15
2023-11-10T13:52:14.494Z,11.11
2023-11-10T13:54:42.017Z,11.08
2023-11-10T13:57:09.909Z,11.06
2023-11-10T13:59:37.354Z,10.83
2023-11-10T14:02:05.170Z,10.61
2023-11-10T14:04:32.648Z,10.60
2023-11-10T14:07:02.105Z,10.53
2023-11-10T14:09:29.580Z,10.55
2023-11-10T14:11:57.686Z,10.46
2023-11-10T14:14:24.989Z,10.50
2023-11-10T14:16:52.915Z,10.53
2023-11-10T14:19:20.330Z,10.58
2023-11-10T14:21:48.064Z,10.67
2023-11-10T14:24:16.957Z,10.78
2023-11-10T14:26:44.795Z,10.81
2023-11-10T14:29:12.270Z,10.87
2023-11-10T14:31:40.263Z,10.93
2023-11-10T14:34:07.793Z,10.81
2023-11-10T14:36:35.810Z,10.81
2023-11-10T14:39:03.593Z,10.91
2023-11-10T14:41:33.856Z,11.01
2023-11-10T14:44:01.718Z,11.11
2023-11-10T14:46:29.564Z,11.09
2023-11-10T14:48:57.098Z,10.98
2023-11-10T14:51:24.906Z,10.84
2023-11-10T14:53:52.336Z,10.81
2023-11-10T14:56:20.341Z,10.74
2023-11-10T14:58:49.290Z,10.78
2023-11-10T15:01:17.224Z,10.80
2023-11-10T15:03:47.574Z,10.77
2023-11-10T15:06:17.970Z,10.87
2023-11-10T15:08:46.402Z,10.89
2023-11-10T15:11:14.476Z,10.92
2023-11-10T15:13:42.019Z,11.05
2023-11-10T15:16:11.395Z,11.11
2023-11-10T15:18:39.217Z,11.13
2023-11-10T15:21:07.128Z,11.22
2023-11-10T15:23:34.891Z,11.23
2023-11-10T15:26:03.012Z,11.24
2023-11-10T15:28:30.581Z,11.34
2023-11-10T15:30:58.369Z,11.20
2023-11-10T15:33:27.125Z,11.21
2023-11-10T15:35:54.908Z,11.15
2023-11-10T15:38:22.437Z,11.17
2023-11-10T15:40:51.407Z,11.27
2023-11-10T15:43:18.922Z,11.37
2023-11-10T15:45:46.993Z,11.31
2023-11-10T15:48:14.440Z,11.48
2023-11-10T15:50:44.032Z,11.48
2023-11-10T15:53:11.575Z,11.46
2023-11-10T15:55:39.283Z,11.48
2023-11-10T15:58:07.283Z,11.37
2023-11-10T16:00:35.218Z,11.45
2023-11-10T16:03:03.082Z,11.56
2023-11-10T16:05:31.544Z,11.57
2023-11-10T16:08:00.752Z,11.50
2023-11-10T16:10:28.596Z,11.50
2023-11-10T16:12:56.146Z,11.50
2023-11-10T16:15:24.128Z,11.43
2023-11-10T16:17:51.633Z,11.52
2023-11-10T16:20:19.540Z,11.38
2023-11-10T16:22:47.149Z,11.36
2023-11-10T16:25:19.863Z,11.23
2023-11-10T16:27:47.422Z,11.33
2023-11-10T16:30:15.529Z,11.24
2023-11-10T16:32:42.908Z,11.26
2023-11-10T16:35:11.060Z,11.30
2023-11-10T16:37:38.676Z,11.36
2023-11-10T16:40:08.064Z,11.11
2023-11-10T16:42:36.976Z,11.19
2023-11-10T16:45:06.037Z,11.36
2023-11-10T16:47:33.505Z,11.22
2023-11-10T16:50:01.453Z,11.30
2023-11-10T16:52:28.851Z,11.35
2023-11-10T16:54:56.657Z,11.47
2023-11-10T16:57:24.081Z,11.48
2023-11-10T16:59:53.251Z,11.43
2023-11-10T17:02:26.666Z,11.48
2023-11-10T17:05:00.359Z,11.51
2023-11-10T17:07:27.854Z,11.42
2023-11-10T17:09:55.530Z,11.12
2023-11-10T17:12:22.999Z,10.89
2023-11-10T17:14:50.780Z,10.90
2023-11-10T17:17:19.484Z,10.99
2023-11-10T17:19:47.232Z,10.87
2023-11-10T17:22:14.870Z,10.93
2023-11-10T17:24:45.719Z,10.93
2023-11-10T17:27:13.198Z,11.05
2023-11-10T17:29:40.942Z,11.02
2023-11-10T17:32:08.552Z,11.05
2023-11-10T17:34:37.885Z,11.13
2023-11-10T17:37:05.875Z,11.13
2023-11-10T17:39:33.783Z,11.11
2023-11-10T17:42:01.037Z,11.04
2023-11-10T17:44:28.812Z,11.20
2023-11-10T17:46:56.285Z,11.21
2023-11-10T17:49:24.187Z,11.05
2023-11-10T17:51:53.195Z,11.01
2023-11-10T17:54:20.898Z,11.04
2023-11-10T17:56:48.262Z,11.03
2023-11-10T17:59:16.034Z,11.06
2023-11-10T18:01:43.433Z,11.02
2023-11-10T18:04:11.244Z,10.79
2023-11-10T18:06:39.076Z,10.66
2023-11-10T18:09:08.366Z,10.60
2023-11-10T18:11:35.926Z,10.57
2023-11-10T18:14:03.756Z,10.52
2023-11-10T18:16:31.347Z,10.69
2023-11-10T18:18:59.211Z,10.70
2023-11-10T18:21:26.791Z,10.72
2023-11-10T18:23:54.885Z,10.75
2023-11-10T18:26:23.699Z,10.86
2023-11-10T18:28:51.544Z,10.83
2023-11-10T18:31:22.079Z,10.85
2023-11-10T18:33:50.092Z,10.71
2023-11-10T18:36:17.774Z,10.77
2023-11-10T18:38:45.560Z,10.58
2023-11-10T18:41:13.012Z,10.76
2023-11-10T18:43:45.810Z,10.79
2023-11-10T18:46:14.548Z,10.55
2023-11-10T18:48:44.276Z,10.27
2023-11-10T18:51:11.920Z,10.33
2023-11-10T18:53:39.817Z,10.10
2023-11-10T18:56:08.168Z,9.90
2023-11-10T18:58:36.044Z,9.72
2023-11-10T19:01:08.932Z,9.71
2023-11-10T19:03:37.480Z,9.81
2023-11-10T19:06:05.815Z,9.96
2023-11-10T19:08:33.785Z,10.06
2023-11-10T19:11:01.184Z,9.94
2023-11-10T19:13:29.235Z,9.80
2023-11-10T19:15:56.878Z,9.76
2023-11-10T19:18:30.419Z,9.78
2023-11-10T19:20:58.098Z,9.86
2023-11-10T19:23:25.937Z,9.41
2023-11-10T19:25:53.486Z,9.04
2023-11-10T19:28:21.479Z,9.35
2023-11-10T19:30:49.104Z,9.39
2023-11-10T19:33:17.449Z,9.24
2023-11-10T19:35:46.566Z,9.22
2023-11-10T19:38:14.726Z,9.23
2023-11-10T19:40:42.377Z,9.23
2023-11-10T19:43:10.352Z,9.25
2023-11-10T19:45:37.881Z,9.38
2023-11-10T19:48:06.096Z,9.45
2023-11-10T19:50:34.022Z,9.39
2023-11-10T19:53:07.211Z,9.21
2023-11-10T19:55:34.926Z,9.22
2023-11-10T19:58:02.906Z,9.40
2023-11-10T20:03:01.345Z,9.33
2023-11-10T20:05:30.142Z,9.11
2023-11-10T20:07:58.841Z,8.90
2023-11-10T20:10:28.290Z,8.88
2023-11-10T20:12:56.355Z,8.90
2023-11-10T20:15:24.926Z,9.09
2023-11-10T20:17:53.449Z,8.99
2023-11-10T20:20:22.612Z,8.88
2023-11-10T20:22:52.578Z,8.84
2023-11-10T20:25:21.205Z,8.84
2023-11-10T20:27:51.620Z,8.69
2023-11-10T20:30:19.959Z,8.70
2023-11-10T20:32:51.358Z,8.56
2023-11-10T20:35:19.221Z,8.63
2023-11-10T20:37:48.659Z,8.68
2023-11-10T20:40:27.875Z,8.66
2023-11-10T20:43:00.451Z,8.51
2023-11-10T20:45:30.846Z,8.45
2023-11-10T20:48:02.452Z,8.29
2023-11-10T20:50:33.425Z,7.97
2023-11-10T20:53:05.134Z,8.00
2023-11-10T20:55:33.192Z,8.26
2023-11-10T20:58:12.441Z,8.21
2023-11-10T21:00:48.313Z,8.15
2023-11-10T21:03:21.149Z,8.20
2023-11-10T21:05:51.165Z,7.84
2023-11-10T21:08:24.480Z,8.02
2023-11-10T21:11:01.462Z,7.65
2023-11-10T21:13:31.664Z,7.38
2023-11-10T21:16:02.089Z,7.30
2023-11-10T21:18:30.704Z,7.18
2023-11-10T21:20:58.332Z,7.18
2023-11-10T21:23:29.760Z,7.17
2023-11-10T21:26:00.236Z,7.13
2023-11-10T21:28:28.374Z,7.11
2023-11-10T21:31:00.753Z,7.15
2023-11-10T21:33:32.046Z,7.18
2023-11-10T21:36:00.217Z,6.99
2023-11-10T21:38:28.249Z,7.22
2023-11-10T21:40:55.793Z,7.12
2023-11-10T21:43:23.670Z,7.23
2023-11-10T21:45:51.469Z,7.08
2023-11-10T21:48:21.111Z,6.89
2023-11-10T21:50:48.649Z,6.95
2023-11-10T21:53:16.512Z,6.77
2023-11-10T21:55:45.657Z,6.73
2023-11-10T21:58:14.784Z,6.57
2023-11-10T22:00:46.268Z,6.70
2023-11-10T22:03:14.448Z,6.56
2023-11-10T22:05:43.698Z,6.60
2023-11-10T22:08:11.660Z,6.79
2023-11-10T22:10:39.558Z,6.82
2023-11-10T22:13:07.665Z,6.62
2023-11-10T22:15:35.594Z,6.57
2023-11-10T22:18:06.647Z,6.43
2023-11-10T22:20:35.367Z,6.32
2023-11-10T22:23:09.150Z,6.27
2023-11-10T22:25:36.866Z,6.20
2023-11-10T22:28:05.699Z,6.31
2023-11-10T22:30:33.806Z,6.36
2023-11-10T22:33:02.043Z,6.34
2023-11-10T22:35:29.592Z,6.30
2023-11-10T22:37:57.631Z,6.30
2023-11-10T22:40:29.980Z,6.24
2023-11-10T22:42:58.085Z,6.22
2023-11-10T22:45:25.710Z,6.00
2023-11-10T22:47:53.808Z,5.93
2023-11-10T22:50:21.475Z,5.71
2023-11-10T22:52:49.690Z,5.67
2023-11-10T22:55:18.086Z,5.64
2023-11-10T22:57:47.898Z,5.75
2023-11-10T23:00:16.204Z,5.51
2023-11-10T23:02:44.067Z,5.55
2023-11-10T23:05:11.540Z,5.54
2023-11-10T23:07:39.479Z,5.58
2023-11-10T23:10:07.849Z,5.69
2023-11-10T23:12:35.896Z,5.79
2023-11-10T23:15:05.846Z,5.77
2023-11-10T23:17:33.596Z,5.74
2023-11-10T23:20:01.089Z,5.62
2023-11-10T23:22:28.948Z,5.74
2023-11-10T23:24:56.367Z,5.75
2023-11-10T23:27:24.249Z,5.53
2023-11-10T23:29:51.615Z,5.45
2023-11-10T23:32:20.966Z,5.56
2023-11-10T23:34:48.457Z,5.42
2023-11-10T23:37:16.176Z,5.29
2023-11-10T23:39:43.712Z,5.19
2023-11-10T23:42:11.548Z,5.16
2023-11-10T23:44:39.302Z,5.06
2023-11-10T23:47:11.529Z,5.08
2023-11-10T23:49:40.546Z,5.05
2023-11-10T23:52:08.974Z,4.92
2023-11-10T23:54:36.415Z,4.89
2023-11-10T23:57:05.461Z,4.78
2023-11-10T23:59:33.183Z,4.67
